createdAt,value
2023-03-02T00:00:45.628Z,99.90
2023-03-02T00:03:13.708Z,99.90
2023-03-02T00:05:41.308Z,99.90
2023-03-02T00:08:09.942Z,99.90
2023-03-02T00:10:37.861Z,99.90
2023-03-02T00:13:04.835Z,99.90
2023-03-02T00:15:31.890Z,99.90
2023-03-02T00:17:59.096Z,99.90
2023-03-02T00:20:26.161Z,99.90
2023-03-02T00:22:53.150Z,99.90
2023-03-02T00:25:20.225Z,99.90
2023-03-02T00:27:47.181Z,99.90
2023-03-02T00:30:16.149Z,99.90
2023-03-02T00:32:43.122Z,99.90
2023-03-02T00:35:10.245Z,99.90
2023-03-02T00:37:37.410Z,99.90
2023-03-02T00:40:09.726Z,99.90
2023-03-02T00:42:37.778Z,99.90
2023-03-02T00:45:05.925Z,99.90
2023-03-02T00:47:36.689Z,99.90
2023-03-02T00:50:04.691Z,99.90
2023-03-02T00:52:32.370Z,99.90
2023-03-02T00:54:59.273Z,99.90
2023-03-02T00:57:26.548Z,99.90
2023-03-02T00:59:53.544Z,99.90
2023-03-02T01:02:21.945Z,99.90
2023-03-02T01:04:49.487Z,99.90
2023-03-02T01:07:17.914Z,99.90
2023-03-02T01:09:45.457Z,99.90
2023-03-02T01:12:12.490Z,99.90
2023-03-02T01:14:40.863Z,99.90
2023-03-02T01:17:08.597Z,99.90
2023-03-02T01:19:35.459Z,99.90
2023-03-02T01:22:02.729Z,99.90
2023-03-02T01:24:29.745Z,99.90
2023-03-02T01:26:56.631Z,99.90
2023-03-02T01:29:23.566Z,99.90
2023-03-02T01:31:50.585Z,99.90
2023-03-02T01:34:17.655Z,99.90
2023-03-02T01:36:47.149Z,99.90
2023-03-02T01:39:16.088Z,99.90
2023-03-02T01:41:43.739Z,99.90
2023-03-02T01:44:29.434Z,99.90
2023-03-02T01:46:56.348Z,99.90
2023-03-02T01:49:23.268Z,99.90
2023-03-02T01:51:50.238Z,99.90
2023-03-02T01:54:23.269Z,99.90
2023-03-02T01:56:51.417Z,99.90
2023-03-02T01:59:20.909Z,99.90
2023-03-02T02:01:50.658Z,99.90
2023-03-02T02:04:17.903Z,99.90
2023-03-02T02:06:48.112Z,99.90
2023-03-02T02:09:16.674Z,99.90
2023-03-02T02:11:43.947Z,99.90
2023-03-02T02:14:10.792Z,99.90
2023-03-02T02:16:38.287Z,99.90
2023-03-02T02:19:23.805Z,99.90
2023-03-02T02:21:50.764Z,99.90
2023-03-02T02:24:28.387Z,99.90
2023-03-02T02:26:56.421Z,99.90
2023-03-02T02:29:49.484Z,99.90
2023-03-02T02:32:18.133Z,99.90
2023-03-02T02:34:45.143Z,99.90
2023-03-02T02:37:14.850Z,99.90
2023-03-02T02:39:43.564Z,99.90
2023-03-02T02:42:18.938Z,99.90
2023-03-02T02:44:45.969Z,99.90
2023-03-02T02:47:17.659Z,99.90
2023-03-02T02:49:45.483Z,99.90
2023-03-02T02:52:15.147Z,99.90
2023-03-02T02:54:43.777Z,99.90
2023-03-02T02:57:11.475Z,99.90
2023-03-02T02:59:43.262Z,99.90
2023-03-02T03:02:24.144Z,99.90
2023-03-02T03:04:51.222Z,99.90
2023-03-02T03:07:22.973Z,99.90
2023-03-02T03:09:58.344Z,99.90
2023-03-02T03:12:26.311Z,99.90
2023-03-02T03:14:53.433Z,99.90
2023-03-02T03:17:20.420Z,99.90
2023-03-02T03:19:47.682Z,99.90
2023-03-02T03:22:15.991Z,99.90
2023-03-02T03:24:43.669Z,99.90
2023-03-02T03:27:12.461Z,99.90
2023-03-02T03:29:40.286Z,99.90
2023-03-02T03:32:07.272Z,99.90
2023-03-02T03:34:40.804Z,99.90
2023-03-02T03:37:09.320Z,99.90
2023-03-02T03:39:36.339Z,99.90
2023-03-02T03:42:03.490Z,99.90
2023-03-02T03:44:30.530Z,99.90
2023-03-02T03:46:57.513Z,99.90
2023-03-02T03:49:24.704Z,99.90
2023-03-02T03:51:51.640Z,99.90
2023-03-02T03:54:18.564Z,99.90
2023-03-02T03:56:46.902Z,99.90
2023-03-02T03:59:15.943Z,99.90
2023-03-02T04:01:47.456Z,99.90
2023-03-02T04:04:16.430Z,99.90
2023-03-02T04:06:43.796Z,99.90
2023-03-02T04:09:12.405Z,99.90
2023-03-02T04:11:40.687Z,99.90
2023-03-02T04:14:08.144Z,99.90
2023-03-02T04:16:35.813Z,99.90
2023-03-02T04:19:03.448Z,99.90
2023-03-02T04:21:30.324Z,99.90
2023-03-02T04:23:57.290Z,99.90
2023-03-02T04:26:24.315Z,99.90
2023-03-02T04:28:51.217Z,99.90
2023-03-02T04:31:18.272Z,99.90
2023-03-02T04:33:45.270Z,99.90
2023-03-02T04:36:12.232Z,99.90
2023-03-02T04:38:39.193Z,99.90
2023-03-02T04:41:06.242Z,99.90
2023-03-02T04:43:33.175Z,99.90
2023-03-02T04:46:00.187Z,99.90
2023-03-02T04:48:27.314Z,99.90
2023-03-02T04:50:54.319Z,99.90
2023-03-02T04:53:21.229Z,99.90
2023-03-02T04:55:48.644Z,99.90
2023-03-02T04:58:15.610Z,99.90
2023-03-02T05:00:42.689Z,99.90
2023-03-02T05:03:09.632Z,99.90
2023-03-02T05:05:36.503Z,99.90
2023-03-02T05:08:03.514Z,99.90
2023-03-02T05:10:30.460Z,99.90
2023-03-02T05:13:05.421Z,99.90
2023-03-02T05:15:36.823Z,99.90
2023-03-02T05:18:05.754Z,99.90
2023-03-02T05:20:32.594Z,99.90
2023-03-02T05:23:01.286Z,99.90
2023-03-02T05:25:29.624Z,99.90
2023-03-02T05:27:56.833Z,99.90
2023-03-02T05:30:24.361Z,99.90
2023-03-02T05:32:51.944Z,99.90
2023-03-02T05:35:19.766Z,99.90
2023-03-02T05:37:46.732Z,99.90
2023-03-02T05:40:14.865Z,99.90
2023-03-02T05:42:42.490Z,99.90
2023-03-02T05:45:13.229Z,99.90
2023-03-02T05:47:40.052Z,99.90
2023-03-02T05:50:07.473Z,99.90
2023-03-02T05:52:34.505Z,99.90
2023-03-02T05:55:01.501Z,99.90
2023-03-02T05:57:28.375Z,99.90
2023-03-02T05:59:55.246Z,99.90
2023-03-02T06:02:22.437Z,99.90
2023-03-02T06:04:51.649Z,99.90
2023-03-02T06:07:21.705Z,99.90
2023-03-02T06:09:48.750Z,99.90
2023-03-02T06:12:15.720Z,99.90
2023-03-02T06:14:42.669Z,99.90
2023-03-02T06:17:09.805Z,99.90
2023-03-02T06:19:36.762Z,99.90
2023-03-02T06:22:03.921Z,99.90
2023-03-02T06:24:30.832Z,99.90
2023-03-02T06:26:57.857Z,99.90
2023-03-02T06:29:24.739Z,99.90
2023-03-02T06:31:51.858Z,99.90
2023-03-02T06:34:18.857Z,99.90
2023-03-02T06:36:45.680Z,99.90
2023-03-02T06:39:15.958Z,99.90
2023-03-02T06:41:43.641Z,99.90
2023-03-02T06:44:10.656Z,99.90
2023-03-02T06:46:38.353Z,99.90
2023-03-02T06:49:05.868Z,99.90
2023-03-02T06:51:32.984Z,99.90
2023-03-02T06:54:00.090Z,99.90
2023-03-02T06:56:27.156Z,99.90
2023-03-02T06:58:54.124Z,99.90
2023-03-02T07:01:21.187Z,99.90
2023-03-02T07:03:48.374Z,99.90
2023-03-02T07:06:15.261Z,99.90
2023-03-02T07:08:42.319Z,99.90
2023-03-02T07:11:10.939Z,99.90
2023-03-02T07:13:38.380Z,99.90
2023-03-02T07:16:09.151Z,99.90
2023-03-02T07:18:36.154Z,99.90
2023-03-02T07:21:03.375Z,99.90
2023-03-02T07:23:30.470Z,99.90
2023-03-02T07:25:58.050Z,99.90
2023-03-02T07:28:25.549Z,99.90
2023-03-02T07:30:55.929Z,99.90
2023-03-02T07:33:22.963Z,99.90
2023-03-02T07:35:49.887Z,99.90
2023-03-02T07:38:16.844Z,99.90
2023-03-02T07:40:44.254Z,99.90
2023-03-02T07:43:11.157Z,99.90
2023-03-02T07:45:38.656Z,99.90
2023-03-02T07:48:05.785Z,99.90
2023-03-02T07:50:32.904Z,99.90
2023-03-02T07:53:00.186Z,99.90
2023-03-02T07:55:27.316Z,99.90
2023-03-02T07:57:54.562Z,99.90
2023-03-02T08:00:22.095Z,99.90
2023-03-02T08:02:49.295Z,99.90
2023-03-02T08:05:16.992Z,99.90
2023-03-02T08:07:44.138Z,99.90
2023-03-02T08:10:11.438Z,99.90
2023-03-02T08:12:38.286Z,99.90
2023-03-02T08:15:05.555Z,99.90
2023-03-02T08:17:32.701Z,99.90
2023-03-02T08:19:59.673Z,99.90
2023-03-02T08:22:26.655Z,99.90
2023-03-02T08:24:53.586Z,99.90
2023-03-02T08:27:20.650Z,99.90
2023-03-02T08:29:47.706Z,99.90
2023-03-02T08:32:14.703Z,99.90
2023-03-02T08:34:41.670Z,99.90
2023-03-02T08:37:08.740Z,99.90
2023-03-02T08:39:35.656Z,99.90
2023-03-02T08:42:02.653Z,99.90
2023-03-02T08:44:29.728Z,99.90
2023-03-02T08:46:56.691Z,99.90
2023-03-02T08:49:23.956Z,99.90
2023-03-02T08:51:53.792Z,99.90
2023-03-02T08:54:21.025Z,99.90
2023-03-02T08:56:49.048Z,99.90
2023-03-02T08:59:16.241Z,99.90
2023-03-02T09:01:43.619Z,99.90
2023-03-02T09:04:10.908Z,99.90
2023-03-02T09:06:39.660Z,99.90
2023-03-02T09:09:07.054Z,99.90
2023-03-02T09:11:34.604Z,99.90
2023-03-02T09:14:01.759Z,99.90
2023-03-02T09:16:28.708Z,99.90
2023-03-02T09:18:55.774Z,99.90
2023-03-02T09:21:22.760Z,99.90
2023-03-02T09:23:53.818Z,99.90
2023-03-02T09:26:20.991Z,99.90
2023-03-02T09:28:48.549Z,99.90
2023-03-02T09:31:15.473Z,99.90
2023-03-02T09:33:42.563Z,99.90
2023-03-02T09:36:11.826Z,99.90
2023-03-02T09:38:39.014Z,99.90
2023-03-02T09:41:18.186Z,99.90
2023-03-02T09:43:53.734Z,99.90
2023-03-02T09:46:23.238Z,99.90
2023-03-02T09:48:59.224Z,99.90
2023-03-02T09:51:46.380Z,99.90
2023-03-02T09:54:20.294Z,99.80
2023-03-02T09:56:52.848Z,97.60
2023-03-02T09:59:38.501Z,99.00
2023-03-02T10:02:20.254Z,98.50
2023-03-02T10:04:49.473Z,97.20
2023-03-02T10:07:30.014Z,95.20
2023-03-02T10:09:59.578Z,92.20
2023-03-02T10:12:32.782Z,91.70
2023-03-02T10:15:03.417Z,91.10
2023-03-02T10:17:30.271Z,91.80
2023-03-02T10:20:00.721Z,93.30
2023-03-02T10:22:30.654Z,98.20
2023-03-02T10:25:03.441Z,99.90
2023-03-02T10:27:35.093Z,99.90
2023-03-02T10:30:14.761Z,99.90
2023-03-02T10:32:51.889Z,99.90
2023-03-02T10:35:21.216Z,99.90
2023-03-02T10:37:48.444Z,98.10
2023-03-02T10:40:24.703Z,96.30
2023-03-02T10:42:52.054Z,93.40
2023-03-02T10:45:25.128Z,91.40
2023-03-02T10:48:01.267Z,92.90
2023-03-02T10:50:30.735Z,97.90
2023-03-02T10:53:00.721Z,98.40
2023-03-02T10:55:29.330Z,96.90
2023-03-02T10:58:01.220Z,96.60
2023-03-02T11:00:29.767Z,96.70
2023-03-02T11:03:01.192Z,99.90
2023-03-02T11:05:31.192Z,99.90
2023-03-02T11:07:59.998Z,99.90
2023-03-02T11:10:37.705Z,99.90
2023-03-02T11:13:18.726Z,99.90
2023-03-02T11:15:49.735Z,99.90
2023-03-02T11:18:37.890Z,99.90
2023-03-02T11:21:06.584Z,99.90
2023-03-02T11:23:39.641Z,99.90
2023-03-02T11:26:12.723Z,99.90
2023-03-02T11:28:39.656Z,99.90
2023-03-02T11:31:08.430Z,99.90
2023-03-02T11:33:42.383Z,99.90
2023-03-02T11:36:15.623Z,99.90
2023-03-02T11:38:47.437Z,98.50
2023-03-02T11:41:20.645Z,98.60
2023-03-02T11:43:47.538Z,99.90
2023-03-02T11:46:22.305Z,98.60
2023-03-02T11:48:51.841Z,99.90
2023-03-02T11:51:21.380Z,99.90
2023-03-02T11:54:03.050Z,99.90
2023-03-02T11:56:31.772Z,99.90
2023-03-02T11:58:59.841Z,99.90
2023-03-02T12:01:27.801Z,99.90
2023-03-02T12:06:39.524Z,99.90
2023-03-02T12:09:24.549Z,99.90
2023-03-02T12:11:56.389Z,99.90
2023-03-02T12:14:26.203Z,99.60
2023-03-02T12:17:03.450Z,99.90
2023-03-02T12:19:39.989Z,99.90
2023-03-02T12:22:10.959Z,99.90
2023-03-02T12:24:39.513Z,99.90
2023-03-02T12:27:25.799Z,99.90
2023-03-02T12:29:57.846Z,99.90
2023-03-02T12:32:26.505Z,99.90
2023-03-02T12:34:59.454Z,99.90
2023-03-02T12:37:28.251Z,99.90
2023-03-02T12:40:07.813Z,99.90
2023-03-02T12:42:37.450Z,99.90
2023-03-02T12:45:04.697Z,99.90
2023-03-02T12:47:32.159Z,98.90
2023-03-02T12:50:04.572Z,99.90
2023-03-02T12:52:35.722Z,99.90
2023-03-02T12:55:05.476Z,99.90
2023-03-02T12:57:32.705Z,99.90
2023-03-02T13:00:01.181Z,99.90
2023-03-02T13:02:29.343Z,99.90
2023-03-02T13:05:01.569Z,99.90
2023-03-02T13:07:30.441Z,99.90
2023-03-02T13:09:58.936Z,99.90
2023-03-02T13:12:27.264Z,99.90
2023-03-02T13:14:55.669Z,99.90
2023-03-02T13:17:24.340Z,99.90
2023-03-02T13:19:51.402Z,99.90
2023-03-02T13:22:20.403Z,99.90
2023-03-02T13:24:51.984Z,99.90
2023-03-02T13:27:20.441Z,99.90
2023-03-02T13:29:47.911Z,99.90
2023-03-02T13:32:35.260Z,99.90
2023-03-02T13:35:05.044Z,99.90
2023-03-02T13:37:40.876Z,99.90
2023-03-02T13:40:30.012Z,99.90
2023-03-02T13:42:57.081Z,99.90
2023-03-02T13:45:28.822Z,99.90
2023-03-02T13:47:56.908Z,99.90
2023-03-02T13:50:32.681Z,99.90
2023-03-02T13:53:02.815Z,99.90
2023-03-02T13:55:30.460Z,99.90
2023-03-02T13:57:58.012Z,99.90
2023-03-02T14:00:24.934Z,99.90
2023-03-02T14:02:54.541Z,99.90
2023-03-02T14:05:23.165Z,99.90
2023-03-02T14:07:50.182Z,99.90
2023-03-02T14:10:18.116Z,99.90
2023-03-02T14:12:52.789Z,99.90
2023-03-02T14:15:19.928Z,99.90
2023-03-02T14:17:49.328Z,99.90
2023-03-02T14:20:19.633Z,99.90
2023-03-02T14:22:47.159Z,99.90
2023-03-02T14:25:14.492Z,99.90
2023-03-02T14:27:42.021Z,99.90
2023-03-02T14:30:16.861Z,99.90
2023-03-02T14:32:43.815Z,99.90
2023-03-02T14:35:12.178Z,99.90
2023-03-02T14:37:43.910Z,99.90
2023-03-02T14:40:22.034Z,99.90
2023-03-02T14:42:48.962Z,99.90
2023-03-02T14:45:16.684Z,99.90
2023-03-02T14:47:43.567Z,99.90
2023-03-02T14:50:11.881Z,99.90
2023-03-02T14:52:41.002Z,99.90
2023-03-02T14:55:12.656Z,99.90
2023-03-02T14:57:39.519Z,99.90
2023-03-02T15:00:07.539Z,99.90
2023-03-02T15:02:35.039Z,99.90
2023-03-02T15:05:02.029Z,99.90
2023-03-02T15:07:29.080Z,99.90
2023-03-02T15:09:57.402Z,99.90
2023-03-02T15:12:24.589Z,99.90
2023-03-02T15:14:51.608Z,99.90
2023-03-02T15:17:18.693Z,99.90
2023-03-02T15:19:45.905Z,99.90
2023-03-02T15:22:13.324Z,99.90
2023-03-02T15:24:40.313Z,99.90
2023-03-02T15:27:13.524Z,99.90
2023-03-02T15:29:44.017Z,99.90
2023-03-02T15:32:11.166Z,99.90
2023-03-02T15:34:38.275Z,99.90
2023-03-02T15:37:05.327Z,99.90
2023-03-02T15:39:33.511Z,99.90
2023-03-02T15:42:01.240Z,99.90
2023-03-02T15:44:29.963Z,99.90
2023-03-02T15:47:00.871Z,99.90
2023-03-02T15:49:29.447Z,99.90
2023-03-02T15:51:57.830Z,99.90
2023-03-02T15:54:25.086Z,99.90
2023-03-02T15:56:52.368Z,99.90
2023-03-02T15:59:20.202Z,99.90
2023-03-02T16:01:47.174Z,99.90
2023-03-02T16:04:14.178Z,99.90
2023-03-02T16:06:41.355Z,99.90
2023-03-02T16:09:08.543Z,99.90
2023-03-02T16:11:35.753Z,99.90
2023-03-02T16:14:03.123Z,99.90
2023-03-02T16:16:30.305Z,99.90
2023-03-02T16:18:58.232Z,99.90
2023-03-02T16:21:26.995Z,99.90
2023-03-02T16:23:54.180Z,99.90
2023-03-02T16:26:21.964Z,99.90
2023-03-02T16:28:49.321Z,99.90
2023-03-02T16:31:18.190Z,99.90
2023-03-02T16:33:46.201Z,99.90
2023-03-02T16:36:13.612Z,99.90
2023-03-02T16:38:41.519Z,99.90
2023-03-02T16:41:13.478Z,99.90
2023-03-02T16:43:47.802Z,99.90
2023-03-02T16:46:15.601Z,99.90
2023-03-02T16:48:43.074Z,99.90
2023-03-02T16:51:10.177Z,99.90
2023-03-02T16:53:37.381Z,99.90
2023-03-02T16:56:04.444Z,99.90
2023-03-02T16:58:31.540Z,99.90
2023-03-02T17:00:58.714Z,99.90
2023-03-02T17:03:25.806Z,99.90
2023-03-02T17:05:52.787Z,99.90
2023-03-02T17:08:19.700Z,99.90
2023-03-02T17:10:46.828Z,99.90
2023-03-02T17:13:16.653Z,99.90
2023-03-02T17:15:43.897Z,99.90
2023-03-02T17:18:12.918Z,99.90
2023-03-02T17:20:40.089Z,99.90
2023-03-02T17:23:07.541Z,99.90
2023-03-02T17:25:34.511Z,99.90
2023-03-02T17:28:01.443Z,99.90
2023-03-02T17:30:28.545Z,99.90
2023-03-02T17:32:55.964Z,99.90
2023-03-02T17:35:23.015Z,99.90
2023-03-02T17:37:49.991Z,99.90
2023-03-02T17:40:17.742Z,99.90
2023-03-02T17:42:45.123Z,99.90
2023-03-02T17:45:19.614Z,99.90
2023-03-02T17:47:46.882Z,99.90
2023-03-02T17:50:14.164Z,99.90
2023-03-02T17:52:41.605Z,99.90
2023-03-02T17:55:09.740Z,99.90
2023-03-02T17:57:37.389Z,99.90
2023-03-02T18:00:08.029Z,99.90
2023-03-02T18:02:37.716Z,99.90
2023-03-02T18:05:07.085Z,99.90
2023-03-02T18:07:34.145Z,99.90
2023-03-02T18:10:00.988Z,99.90
2023-03-02T18:12:30.733Z,99.90
2023-03-02T18:15:01.156Z,99.90
2023-03-02T18:17:32.967Z,99.90
2023-03-02T18:20:02.169Z,99.90
2023-03-02T18:22:33.277Z,99.90
2023-03-02T18:25:03.055Z,99.90
2023-03-02T18:27:30.740Z,99.90
2023-03-02T18:29:57.805Z,99.90
2023-03-02T18:32:25.846Z,99.90
2023-03-02T18:34:53.001Z,99.90
2023-03-02T18:37:20.366Z,99.90
2023-03-02T18:39:51.037Z,99.90
2023-03-02T18:42:21.959Z,99.90
2023-03-02T18:44:53.079Z,99.90
2023-03-02T18:47:20.433Z,99.90
2023-03-02T18:49:52.274Z,99.90
2023-03-02T18:52:19.997Z,99.90
2023-03-02T18:54:52.653Z,99.90
2023-03-02T18:57:23.614Z,99.90
2023-03-02T18:59:51.878Z,99.90
2023-03-02T19:02:19.196Z,99.90
2023-03-02T19:04:50.761Z,99.90
2023-03-02T19:07:22.212Z,99.90
2023-03-02T19:09:53.038Z,99.90
2023-03-02T19:12:25.897Z,99.90
2023-03-02T19:14:57.633Z,99.90
2023-03-02T19:17:30.252Z,99.90
2023-03-02T19:19:58.482Z,99.90
2023-03-02T19:22:25.583Z,99.90
2023-03-02T19:24:52.642Z,99.90
2023-03-02T19:27:25.016Z,99.90
2023-03-02T19:29:57.383Z,99.90
2023-03-02T19:32:25.101Z,99.90
2023-03-02T19:34:55.159Z,99.90
2023-03-02T19:37:23.365Z,99.90
2023-03-02T19:39:54.913Z,99.90
2023-03-02T19:42:22.490Z,99.90
2023-03-02T19:44:52.994Z,99.90
2023-03-02T19:47:21.534Z,99.90
2023-03-02T19:49:49.102Z,99.90
2023-03-02T19:52:16.128Z,99.90
2023-03-02T19:54:43.832Z,99.90
2023-03-02T19:57:10.791Z,99.90
2023-03-02T19:59:40.632Z,99.90
2023-03-02T20:02:07.830Z,99.90
2023-03-02T20:04:35.015Z,99.90
2023-03-02T20:07:03.153Z,99.90
2023-03-02T20:09:44.449Z,99.90
2023-03-02T20:12:12.176Z,99.90
2023-03-02T20:14:40.863Z,99.90
2023-03-02T20:17:07.834Z,99.90
2023-03-02T20:19:34.827Z,99.90
2023-03-02T20:22:03.895Z,99.90
2023-03-02T20:24:30.829Z,99.90
2023-03-02T20:26:57.943Z,99.90
2023-03-02T20:29:24.989Z,99.90
2023-03-02T20:31:52.397Z,99.90
2023-03-02T20:34:19.766Z,99.90
2023-03-02T20:36:47.141Z,99.90
2023-03-02T20:39:14.190Z,99.90
2023-03-02T20:41:41.475Z,99.90
2023-03-02T20:44:09.041Z,99.90
2023-03-02T20:46:37.916Z,99.90
2023-03-02T20:49:05.307Z,99.90
2023-03-02T20:51:32.281Z,99.90
2023-03-02T20:53:59.231Z,99.90
2023-03-02T20:56:26.223Z,99.90
2023-03-02T20:58:53.282Z,99.90
2023-03-02T21:01:20.948Z,99.90
2023-03-02T21:03:50.546Z,99.90
2023-03-02T21:06:17.582Z,99.90
2023-03-02T21:08:44.606Z,99.90
2023-03-02T21:11:15.792Z,99.90
2023-03-02T21:13:46.207Z,99.90
2023-03-02T21:16:18.627Z,99.90
2023-03-02T21:18:45.624Z,99.90
2023-03-02T21:21:12.694Z,99.90
2023-03-02T21:23:42.037Z,99.90
2023-03-02T21:26:11.307Z,99.90
2023-03-02T21:28:38.935Z,99.90
2023-03-02T21:31:06.025Z,99.90
2023-03-02T21:33:33.988Z,99.90
2023-03-02T21:36:01.097Z,99.90
2023-03-02T21:38:28.212Z,99.90
2023-03-02T21:40:55.299Z,99.90
2023-03-02T21:43:22.154Z,99.90
2023-03-02T21:45:49.097Z,99.90
2023-03-02T21:48:16.065Z,99.90
2023-03-02T21:50:45.540Z,99.90
2023-03-02T21:53:12.521Z,99.90
2023-03-02T21:55:39.870Z,99.90
2023-03-02T21:58:07.317Z,99.90
2023-03-02T22:00:35.905Z,99.90
2023-03-02T22:03:03.710Z,99.90
2023-03-02T22:05:31.074Z,99.90
2023-03-02T22:07:58.026Z,99.90
2023-03-02T22:10:25.147Z,99.90
2023-03-02T22:12:57.419Z,99.90
2023-03-02T22:15:24.632Z,99.90
2023-03-02T22:17:51.693Z,99.90
2023-03-02T22:20:19.497Z,99.90
2023-03-02T22:22:50.786Z,99.90
2023-03-02T22:25:18.908Z,99.90
2023-03-02T22:27:46.753Z,99.90
2023-03-02T22:30:19.623Z,99.90
2023-03-02T22:32:46.569Z,99.90
2023-03-02T22:35:25.021Z,99.90
2023-03-02T22:37:54.740Z,99.90
2023-03-02T22:40:28.535Z,99.90
2023-03-02T22:43:13.962Z,99.90
2023-03-02T22:45:41.183Z,99.90
2023-03-02T22:48:14.354Z,99.90
2023-03-02T22:50:42.326Z,99.90
2023-03-02T22:53:19.841Z,99.90
2023-03-02T22:55:47.603Z,99.90
2023-03-02T22:58:33.126Z,99.90
2023-03-02T23:01:00.873Z,99.90
2023-03-02T23:03:36.237Z,99.90
2023-03-02T23:06:15.643Z,99.90
2023-03-02T23:08:42.560Z,99.90
2023-03-02T23:11:14.194Z,99.90
2023-03-02T23:13:41.299Z,99.90
2023-03-02T23:16:18.809Z,99.90
2023-03-02T23:18:48.033Z,99.90
2023-03-02T23:21:17.421Z,99.90
2023-03-02T23:23:44.818Z,99.90
2023-03-02T23:26:12.096Z,99.90
2023-03-02T23:28:39.064Z,99.90
2023-03-02T23:31:05.958Z,99.90
2023-03-02T23:33:33.621Z,99.90
2023-03-02T23:36:03.366Z,99.90
2023-03-02T23:38:30.470Z,99.90
2023-03-02T23:40:57.455Z,99.90
2023-03-02T23:43:24.442Z,99.90
2023-03-02T23:45:51.520Z,99.90
2023-03-02T23:48:18.571Z,99.90
2023-03-02T23:50:45.662Z,99.90
2023-03-02T23:53:12.813Z,99.90
2023-03-02T23:55:42.155Z,99.90
2023-03-02T23:58:09.151Z,99.90
